sensor_id;sensor_type;location;lat;lon;timestamp;P1;durP1;ratioP1;P2;durP2;ratioP2
13331;SDS011;6735;51.456;12.626;2023-02-15T00:01:50;42.97;;;29.87;;
13331;SDS011;6735;51.456;12.626;2023-02-15T00:04:18;41.00;;;29.30;;
13331;SDS011;6735;51.456;12.626;2023-02-15T00:06:45;46.30;;;30.93;;
13331;SDS011;6735;51.456;12.626;2023-02-15T00:09:11;43.87;;;30.57;;
13331;SDS011;6735;51.456;12.626;2023-02-15T00:11:37;41.33;;;29.40;;
13331;SDS011;6735;51.456;12.626;2023-02-15T00:14:09;42.60;;;30.20;;
13331;SDS011;6735;51.456;12.626;2023-02-15T00:16:36;43.33;;;31.07;;
13331;SDS011;6735;51.456;12.626;2023-02-15T00:19:03;43.43;;;30.83;;
13331;SDS011;6735;51.456;12.626;2023-02-15T00:21:29;40.17;;;28.33;;
13331;SDS011;6735;51.456;12.626;2023-02-15T00:23:56;43.47;;;30.53;;
13331;SDS011;6735;51.456;12.626;2023-02-15T00:26:23;43.53;;;30.93;;
13331;SDS011;6735;51.456;12.626;2023-02-15T00:28:49;44.67;;;31.17;;
13331;SDS011;6735;51.456;12.626;2023-02-15T00:31:14;43.00;;;29.97;;
13331;SDS011;6735;51.456;12.626;2023-02-15T00:33:40;48.17;;;32.20;;
13331;SDS011;6735;51.456;12.626;2023-02-15T00:36:06;42.73;;;30.67;;
13331;SDS011;6735;51.456;12.626;2023-02-15T00:38:33;45.80;;;31.00;;
13331;SDS011;6735;51.456;12.626;2023-02-15T00:41:00;45.33;;;30.73;;
13331;SDS011;6735;51.456;12.626;2023-02-15T00:43:26;43.40;;;30.73;;
13331;SDS011;6735;51.456;12.626;2023-02-15T00:45:53;43.70;;;30.47;;
13331;SDS011;6735;51.456;12.626;2023-02-15T00:48:19;44.60;;;31.13;;
13331;SDS011;6735;51.456;12.626;2023-02-15T00:50:45;42.97;;;30.33;;
13331;SDS011;6735;51.456;12.626;2023-02-15T00:53:11;43.30;;;31.40;;
13331;SDS011;6735;51.456;12.626;2023-02-15T00:55:37;47.50;;;31.73;;
13331;SDS011;6735;51.456;12.626;2023-02-15T00:58:04;48.47;;;32.07;;
13331;SDS011;6735;51.456;12.626;2023-02-15T01:00:30;53.10;;;35.17;;
13331;SDS011;6735;51.456;12.626;2023-02-15T01:02:55;58.30;;;35.83;;
13331;SDS011;6735;51.456;12.626;2023-02-15T01:05:21;50.73;;;34.90;;
13331;SDS011;6735;51.456;12.626;2023-02-15T01:07:46;49.07;;;34.77;;
13331;SDS011;6735;51.456;12.626;2023-02-15T01:10:12;52.00;;;35.73;;
13331;SDS011;6735;51.456;12.626;2023-02-15T01:12:37;56.50;;;34.43;;
13331;SDS011;6735;51.456;12.626;2023-02-15T01:15:03;50.53;;;34.23;;
13331;SDS011;6735;51.456;12.626;2023-02-15T01:17:28;50.77;;;34.57;;
13331;SDS011;6735;51.456;12.626;2023-02-15T01:19:54;51.50;;;34.37;;
13331;SDS011;6735;51.456;12.626;2023-02-15T01:22:19;52.60;;;33.43;;
13331;SDS011;6735;51.456;12.626;2023-02-15T01:24:45;48.13;;;32.87;;
13331;SDS011;6735;51.456;12.626;2023-02-15T01:27:10;49.47;;;34.27;;
13331;SDS011;6735;51.456;12.626;2023-02-15T01:29:36;47.67;;;34.03;;
13331;SDS011;6735;51.456;12.626;2023-02-15T01:32:01;51.73;;;34.17;;
13331;SDS011;6735;51.456;12.626;2023-02-15T01:34:28;48.70;;;33.77;;
13331;SDS011;6735;51.456;12.626;2023-02-15T01:36:54;50.63;;;34.50;;
13331;SDS011;6735;51.456;12.626;2023-02-15T01:39:20;50.73;;;34.70;;
13331;SDS011;6735;51.456;12.626;2023-02-15T01:41:45;49.33;;;33.60;;
13331;SDS011;6735;51.456;12.626;2023-02-15T01:47:36;51.23;;;33.60;;
13331;SDS011;6735;51.456;12.626;2023-02-15T01:52:38;52.37;;;34.07;;
13331;SDS011;6735;51.456;12.626;2023-02-15T01:55:07;56.10;;;34.83;;
13331;SDS011;6735;51.456;12.626;2023-02-15T01:57:33;51.47;;;34.90;;
13331;SDS011;6735;51.456;12.626;2023-02-15T01:59:59;52.83;;;33.73;;
13331;SDS011;6735;51.456;12.626;2023-02-15T02:02:28;47.67;;;33.07;;
13331;SDS011;6735;51.456;12.626;2023-02-15T02:04:54;47.13;;;32.27;;
13331;SDS011;6735;51.456;12.626;2023-02-15T02:07:26;47.43;;;32.60;;
13331;SDS011;6735;51.456;12.626;2023-02-15T02:09:53;46.03;;;31.13;;
13331;SDS011;6735;51.456;12.626;2023-02-15T02:12:19;46.93;;;32.10;;
13331;SDS011;6735;51.456;12.626;2023-02-15T02:14:47;47.87;;;32.73;;
13331;SDS011;6735;51.456;12.626;2023-02-15T02:28:51;45.77;;;30.83;;
13331;SDS011;6735;51.456;12.626;2023-02-15T02:31:37;49.87;;;31.40;;
13331;SDS011;6735;51.456;12.626;2023-02-15T02:34:25;42.20;;;30.60;;
13331;SDS011;6735;51.456;12.626;2023-02-15T02:36:59;43.63;;;30.10;;
13331;SDS011;6735;51.456;12.626;2023-02-15T02:42:26;44.20;;;29.20;;
13331;SDS011;6735;51.456;12.626;2023-02-15T02:45:15;50.10;;;32.13;;
13331;SDS011;6735;51.456;12.626;2023-02-15T02:48:02;44.53;;;30.60;;
13331;SDS011;6735;51.456;12.626;2023-02-15T02:50:32;50.30;;;31.23;;
13331;SDS011;6735;51.456;12.626;2023-02-15T02:52:58;43.97;;;29.73;;
13331;SDS011;6735;51.456;12.626;2023-02-15T02:57:57;47.23;;;30.03;;
13331;SDS011;6735;51.456;12.626;2023-02-15T03:00:24;43.10;;;29.33;;
13331;SDS011;6735;51.456;12.626;2023-02-15T03:02:54;45.23;;;29.80;;
13331;SDS011;6735;51.456;12.626;2023-02-15T03:05:29;44.73;;;30.47;;
13331;SDS011;6735;51.456;12.626;2023-02-15T03:07:56;44.03;;;29.70;;
13331;SDS011;6735;51.456;12.626;2023-02-15T03:10:25;49.33;;;32.20;;
13331;SDS011;6735;51.456;12.626;2023-02-15T03:12:52;44.03;;;29.63;;
13331;SDS011;6735;51.456;12.626;2023-02-15T03:15:26;40.93;;;28.97;;
13331;SDS011;6735;51.456;12.626;2023-02-15T03:18:14;43.73;;;30.50;;
13331;SDS011;6735;51.456;12.626;2023-02-15T03:20:42;45.97;;;30.50;;
13331;SDS011;6735;51.456;12.626;2023-02-15T03:23:11;44.67;;;29.77;;
13331;SDS011;6735;51.456;12.626;2023-02-15T03:25:42;47.17;;;29.90;;
13331;SDS011;6735;51.456;12.626;2023-02-15T03:28:13;40.80;;;29.47;;
13331;SDS011;6735;51.456;12.626;2023-02-15T03:30:42;47.13;;;29.93;;
13331;SDS011;6735;51.456;12.626;2023-02-15T03:33:11;44.60;;;30.47;;
13331;SDS011;6735;51.456;12.626;2023-02-15T03:35:41;45.37;;;30.03;;
13331;SDS011;6735;51.456;12.626;2023-02-15T03:38:33;44.80;;;28.80;;
13331;SDS011;6735;51.456;12.626;2023-02-15T03:41:05;46.37;;;30.83;;
13331;SDS011;6735;51.456;12.626;2023-02-15T03:43:48;44.47;;;30.37;;
13331;SDS011;6735;51.456;12.626;2023-02-15T03:48:54;47.03;;;32.03;;
13331;SDS011;6735;51.456;12.626;2023-02-15T03:51:27;46.33;;;30.07;;
13331;SDS011;6735;51.456;12.626;2023-02-15T03:54:06;46.07;;;30.63;;
13331;SDS011;6735;51.456;12.626;2023-02-15T03:56:35;43.50;;;29.97;;
13331;SDS011;6735;51.456;12.626;2023-02-15T03:59:03;42.77;;;30.33;;
13331;SDS011;6735;51.456;12.626;2023-02-15T04:01:51;44.47;;;30.30;;
13331;SDS011;6735;51.456;12.626;2023-02-15T04:04:38;42.43;;;29.87;;
13331;SDS011;6735;51.456;12.626;2023-02-15T04:07:07;41.47;;;27.97;;
13331;SDS011;6735;51.456;12.626;2023-02-15T04:09:33;39.73;;;27.67;;
13331;SDS011;6735;51.456;12.626;2023-02-15T04:12:18;38.60;;;27.40;;
13331;SDS011;6735;51.456;12.626;2023-02-15T04:14:43;40.00;;;28.13;;
13331;SDS011;6735;51.456;12.626;2023-02-15T04:17:28;39.97;;;27.80;;
13331;SDS011;6735;51.456;12.626;2023-02-15T04:19:53;40.00;;;27.57;;
13331;SDS011;6735;51.456;12.626;2023-02-15T04:22:37;41.63;;;29.30;;
13331;SDS011;6735;51.456;12.626;2023-02-15T04:25:21;41.50;;;29.00;;
13331;SDS011;6735;51.456;12.626;2023-02-15T04:27:48;43.40;;;27.83;;
13331;SDS011;6735;51.456;12.626;2023-02-15T04:30:15;39.80;;;27.27;;
13331;SDS011;6735;51.456;12.626;2023-02-15T04:32:43;40.80;;;28.20;;
13331;SDS011;6735;51.456;12.626;2023-02-15T04:35:09;41.43;;;27.20;;
13331;SDS011;6735;51.456;12.626;2023-02-15T04:37:35;38.33;;;27.37;;
13331;SDS011;6735;51.456;12.626;2023-02-15T04:40:00;36.90;;;26.00;;
13331;SDS011;6735;51.456;12.626;2023-02-15T04:42:26;37.80;;;26.90;;
13331;SDS011;6735;51.456;12.626;2023-02-15T04:44:53;36.47;;;26.07;;
13331;SDS011;6735;51.456;12.626;2023-02-15T04:47:18;36.53;;;25.53;;
13331;SDS011;6735;51.456;12.626;2023-02-15T04:49:44;35.67;;;25.57;;
13331;SDS011;6735;51.456;12.626;2023-02-15T04:52:10;35.47;;;24.77;;
13331;SDS011;6735;51.456;12.626;2023-02-15T04:54:35;38.07;;;25.90;;
13331;SDS011;6735;51.456;12.626;2023-02-15T04:57:01;35.53;;;24.97;;
13331;SDS011;6735;51.456;12.626;2023-02-15T04:59:26;36.47;;;25.57;;
13331;SDS011;6735;51.456;12.626;2023-02-15T05:01:52;37.10;;;26.10;;
13331;SDS011;6735;51.456;12.626;2023-02-15T05:04:17;36.00;;;25.57;;
13331;SDS011;6735;51.456;12.626;2023-02-15T05:06:43;40.53;;;26.73;;
13331;SDS011;6735;51.456;12.626;2023-02-15T05:09:10;37.47;;;24.77;;
13331;SDS011;6735;51.456;12.626;2023-02-15T05:11:36;33.47;;;23.97;;
13331;SDS011;6735;51.456;12.626;2023-02-15T05:14:01;33.17;;;23.40;;
13331;SDS011;6735;51.456;12.626;2023-02-15T05:16:27;31.00;;;22.73;;
13331;SDS011;6735;51.456;12.626;2023-02-15T05:18:53;32.13;;;23.63;;
13331;SDS011;6735;51.456;12.626;2023-02-15T05:21:18;32.40;;;23.73;;
13331;SDS011;6735;51.456;12.626;2023-02-15T05:23:44;34.17;;;24.47;;
13331;SDS011;6735;51.456;12.626;2023-02-15T05:26:16;33.23;;;23.73;;
13331;SDS011;6735;51.456;12.626;2023-02-15T05:29:03;32.57;;;22.73;;
13331;SDS011;6735;51.456;12.626;2023-02-15T05:31:28;34.97;;;23.77;;
13331;SDS011;6735;51.456;12.626;2023-02-15T05:33:55;32.57;;;22.73;;
13331;SDS011;6735;51.456;12.626;2023-02-15T05:36:21;32.80;;;23.70;;
13331;SDS011;6735;51.456;12.626;2023-02-15T05:38:46;33.63;;;23.77;;
13331;SDS011;6735;51.456;12.626;2023-02-15T05:41:12;31.43;;;22.40;;
13331;SDS011;6735;51.456;12.626;2023-02-15T05:43:37;28.30;;;21.87;;
13331;SDS011;6735;51.456;12.626;2023-02-15T05:46:03;32.50;;;23.25;;
13331;SDS011;6735;51.456;12.626;2023-02-15T05:48:30;29.87;;;22.13;;
13331;SDS011;6735;51.456;12.626;2023-02-15T05:53:26;32.00;;;22.97;;
13331;SDS011;6735;51.456;12.626;2023-02-15T05:55:52;31.30;;;21.87;;
13331;SDS011;6735;51.456;12.626;2023-02-15T05:58:19;28.77;;;21.97;;
13331;SDS011;6735;51.456;12.626;2023-02-15T06:00:45;29.17;;;21.93;;
13331;SDS011;6735;51.456;12.626;2023-02-15T06:03:10;28.43;;;21.67;;
13331;SDS011;6735;51.456;12.626;2023-02-15T06:05:35;29.70;;;21.37;;
13331;SDS011;6735;51.456;12.626;2023-02-15T06:08:01;27.90;;;20.60;;
13331;SDS011;6735;51.456;12.626;2023-02-15T06:10:26;29.00;;;21.97;;
13331;SDS011;6735;51.456;12.626;2023-02-15T06:12:52;30.17;;;21.60;;
13331;SDS011;6735;51.456;12.626;2023-02-15T06:15:17;29.73;;;20.53;;
13331;SDS011;6735;51.456;12.626;2023-02-15T06:17:43;28.93;;;21.10;;
13331;SDS011;6735;51.456;12.626;2023-02-15T06:20:09;26.90;;;19.90;;
13331;SDS011;6735;51.456;12.626;2023-02-15T06:22:34;29.20;;;20.30;;
13331;SDS011;6735;51.456;12.626;2023-02-15T06:25:00;28.37;;;21.20;;
13331;SDS011;6735;51.456;12.626;2023-02-15T06:27:26;28.53;;;21.30;;
13331;SDS011;6735;51.456;12.626;2023-02-15T06:29:51;26.57;;;20.47;;
13331;SDS011;6735;51.456;12.626;2023-02-15T06:32:17;29.10;;;19.90;;
13331;SDS011;6735;51.456;12.626;2023-02-15T06:34:42;29.00;;;19.90;;
13331;SDS011;6735;51.456;12.626;2023-02-15T06:37:08;29.00;;;20.57;;
13331;SDS011;6735;51.456;12.626;2023-02-15T06:39:33;25.67;;;20.43;;
13331;SDS011;6735;51.456;12.626;2023-02-15T06:41:59;28.67;;;20.77;;
13331;SDS011;6735;51.456;12.626;2023-02-15T06:44:25;28.13;;;19.70;;
13331;SDS011;6735;51.456;12.626;2023-02-15T06:46:50;27.23;;;20.27;;
13331;SDS011;6735;51.456;12.626;2023-02-15T06:49:16;28.20;;;20.30;;
13331;SDS011;6735;51.456;12.626;2023-02-15T06:51:41;30.47;;;21.30;;
13331;SDS011;6735;51.456;12.626;2023-02-15T06:54:06;27.13;;;20.33;;
13331;SDS011;6735;51.456;12.626;2023-02-15T06:56:32;33.60;;;22.67;;
13331;SDS011;6735;51.456;12.626;2023-02-15T06:58:57;32.13;;;23.03;;
13331;SDS011;6735;51.456;12.626;2023-02-15T07:01:23;28.97;;;22.73;;
13331;SDS011;6735;51.456;12.626;2023-02-15T07:03:49;31.60;;;22.53;;
13331;SDS011;6735;51.456;12.626;2023-02-15T07:06:14;31.43;;;22.33;;
13331;SDS011;6735;51.456;12.626;2023-02-15T07:08:40;29.50;;;22.30;;
13331;SDS011;6735;51.456;12.626;2023-02-15T07:11:06;27.67;;;21.53;;
13331;SDS011;6735;51.456;12.626;2023-02-15T07:13:50;33.50;;;24.43;;
13331;SDS011;6735;51.456;12.626;2023-02-15T07:16:17;30.50;;;22.87;;
13331;SDS011;6735;51.456;12.626;2023-02-15T07:18:43;33.53;;;23.43;;
13331;SDS011;6735;51.456;12.626;2023-02-15T07:21:08;27.97;;;21.37;;
13331;SDS011;6735;51.456;12.626;2023-02-15T07:23:34;28.23;;;21.10;;
13331;SDS011;6735;51.456;12.626;2023-02-15T07:26:01;29.13;;;21.23;;
13331;SDS011;6735;51.456;12.626;2023-02-15T07:28:27;28.87;;;21.60;;
13331;SDS011;6735;51.456;12.626;2023-02-15T07:30:53;28.93;;;21.47;;
13331;SDS011;6735;51.456;12.626;2023-02-15T07:33:18;28.47;;;21.83;;
13331;SDS011;6735;51.456;12.626;2023-02-15T07:35:59;31.87;;;22.03;;
13331;SDS011;6735;51.456;12.626;2023-02-15T07:38:27;30.10;;;21.40;;
13331;SDS011;6735;51.456;12.626;2023-02-15T07:40:59;27.57;;;20.77;;
13331;SDS011;6735;51.456;12.626;2023-02-15T07:43:27;26.27;;;21.17;;
13331;SDS011;6735;51.456;12.626;2023-02-15T07:45:54;28.60;;;21.30;;
13331;SDS011;6735;51.456;12.626;2023-02-15T07:48:19;30.00;;;21.47;;
13331;SDS011;6735;51.456;12.626;2023-02-15T07:50:45;22.17;;;17.30;;
13331;SDS011;6735;51.456;12.626;2023-02-15T07:53:10;28.80;;;22.43;;
13331;SDS011;6735;51.456;12.626;2023-02-15T07:55:36;25.53;;;20.30;;
13331;SDS011;6735;51.456;12.626;2023-02-15T07:58:01;22.73;;;18.30;;
13331;SDS011;6735;51.456;12.626;2023-02-15T08:00:27;17.50;;;15.60;;
13331;SDS011;6735;51.456;12.626;2023-02-15T08:02:55;16.90;;;15.10;;
13331;SDS011;6735;51.456;12.626;2023-02-15T08:05:39;15.30;;;13.70;;
13331;SDS011;6735;51.456;12.626;2023-02-15T08:08:07;13.53;;;12.23;;
13331;SDS011;6735;51.456;12.626;2023-02-15T08:10:33;13.77;;;12.37;;
13331;SDS011;6735;51.456;12.626;2023-02-15T08:13:19;13.37;;;11.97;;
13331;SDS011;6735;51.456;12.626;2023-02-15T08:15:48;13.87;;;11.67;;
13331;SDS011;6735;51.456;12.626;2023-02-15T08:18:14;13.10;;;11.80;;
13331;SDS011;6735;51.456;12.626;2023-02-15T08:20:40;12.73;;;11.07;;
13331;SDS011;6735;51.456;12.626;2023-02-15T08:23:05;11.60;;;10.50;;
13331;SDS011;6735;51.456;12.626;2023-02-15T08:25:31;11.87;;;10.77;;
13331;SDS011;6735;51.456;12.626;2023-02-15T08:27:56;11.40;;;10.30;;
13331;SDS011;6735;51.456;12.626;2023-02-15T08:30:21;11.60;;;10.40;;
13331;SDS011;6735;51.456;12.626;2023-02-15T08:32:47;11.60;;;10.50;;
13331;SDS011;6735;51.456;12.626;2023-02-15T08:35:13;11.53;;;10.43;;
13331;SDS011;6735;51.456;12.626;2023-02-15T08:37:38;11.13;;;10.13;;
13331;SDS011;6735;51.456;12.626;2023-02-15T08:40:04;11.30;;;10.20;;
13331;SDS011;6735;51.456;12.626;2023-02-15T08:42:30;11.83;;;10.67;;
13331;SDS011;6735;51.456;12.626;2023-02-15T08:44:58;10.90;;;9.80;;
13331;SDS011;6735;51.456;12.626;2023-02-15T08:47:23;11.53;;;10.43;;
13331;SDS011;6735;51.456;12.626;2023-02-15T08:49:48;10.03;;;9.10;;
13331;SDS011;6735;51.456;12.626;2023-02-15T08:52:15;11.37;;;10.17;;
13331;SDS011;6735;51.456;12.626;2023-02-15T08:54:41;10.93;;;9.83;;
13331;SDS011;6735;51.456;12.626;2023-02-15T08:57:07;11.50;;;10.30;;
13331;SDS011;6735;51.456;12.626;2023-02-15T08:59:33;10.90;;;9.80;;
13331;SDS011;6735;51.456;12.626;2023-02-15T09:01:58;11.30;;;10.20;;
13331;SDS011;6735;51.456;12.626;2023-02-15T09:04:25;13.23;;;10.13;;
13331;SDS011;6735;51.456;12.626;2023-02-15T09:06:51;10.73;;;9.47;;
13331;SDS011;6735;51.456;12.626;2023-02-15T09:09:18;10.20;;;9.20;;
13331;SDS011;6735;51.456;12.626;2023-02-15T09:11:45;10.53;;;9.47;;
13331;SDS011;6735;51.456;12.626;2023-02-15T09:14:16;10.33;;;9.33;;
13331;SDS011;6735;51.456;12.626;2023-02-15T09:16:45;9.80;;;8.73;;
13331;SDS011;6735;51.456;12.626;2023-02-15T09:19:13;10.80;;;9.80;;
13331;SDS011;6735;51.456;12.626;2023-02-15T09:21:39;10.70;;;8.67;;
13331;SDS011;6735;51.456;12.626;2023-02-15T09:24:06;9.23;;;8.37;;
13331;SDS011;6735;51.456;12.626;2023-02-15T09:26:37;9.90;;;8.90;;
13331;SDS011;6735;51.456;12.626;2023-02-15T09:29:05;9.43;;;8.60;;
13331;SDS011;6735;51.456;12.626;2023-02-15T09:31:39;9.37;;;8.47;;
13331;SDS011;6735;51.456;12.626;2023-02-15T09:34:09;9.73;;;8.83;;
13331;SDS011;6735;51.456;12.626;2023-02-15T09:36:36;11.03;;;9.33;;
13331;SDS011;6735;51.456;12.626;2023-02-15T09:39:07;10.33;;;9.37;;
13331;SDS011;6735;51.456;12.626;2023-02-15T09:47:54;9.47;;;8.57;;
13331;SDS011;6735;51.456;12.626;2023-02-15T09:53:26;10.20;;;9.17;;
13331;SDS011;6735;51.456;12.626;2023-02-15T09:56:09;9.63;;;8.67;;
13331;SDS011;6735;51.456;12.626;2023-02-15T10:04:53;10.03;;;9.03;;
13331;SDS011;6735;51.456;12.626;2023-02-15T10:07:37;9.27;;;8.37;;
13331;SDS011;6735;51.456;12.626;2023-02-15T10:10:39;9.40;;;8.50;;
13331;SDS011;6735;51.456;12.626;2023-02-15T10:13:39;10.43;;;9.40;;
13331;SDS011;6735;51.456;12.626;2023-02-15T10:16:18;9.93;;;8.90;;
13331;SDS011;6735;51.456;12.626;2023-02-15T10:21:54;11.13;;;9.17;;
13331;SDS011;6735;51.456;12.626;2023-02-15T10:24:47;11.13;;;9.60;;
13331;SDS011;6735;51.456;12.626;2023-02-15T10:27:23;9.77;;;8.63;;
13331;SDS011;6735;51.456;12.626;2023-02-15T10:29:52;11.17;;;9.47;;
13331;SDS011;6735;51.456;12.626;2023-02-15T10:32:40;14.93;;;9.87;;
13331;SDS011;6735;51.456;12.626;2023-02-15T10:35:19;14.53;;;9.80;;
13331;SDS011;6735;51.456;12.626;2023-02-15T10:38:05;11.30;;;9.77;;
13331;SDS011;6735;51.456;12.626;2023-02-15T10:41:05;10.00;;;8.83;;
13331;SDS011;6735;51.456;12.626;2023-02-15T10:46:50;10.23;;;9.23;;
13331;SDS011;6735;51.456;12.626;2023-02-15T11:00:41;9.43;;;8.43;;
13331;SDS011;6735;51.456;12.626;2023-02-15T11:03:17;13.60;;;9.97;;
13331;SDS011;6735;51.456;12.626;2023-02-15T11:06:06;13.63;;;9.73;;
13331;SDS011;6735;51.456;12.626;2023-02-15T11:08:40;10.40;;;9.40;;
13331;SDS011;6735;51.456;12.626;2023-02-15T11:11:12;10.27;;;9.27;;
13331;SDS011;6735;51.456;12.626;2023-02-15T11:13:45;11.50;;;9.57;;
13331;SDS011;6735;51.456;12.626;2023-02-15T11:16:22;10.97;;;9.13;;
13331;SDS011;6735;51.456;12.626;2023-02-15T11:21:24;10.23;;;9.20;;
13331;SDS011;6735;51.456;12.626;2023-02-15T11:23:54;10.73;;;9.53;;
13331;SDS011;6735;51.456;12.626;2023-02-15T11:26:28;11.30;;;9.00;;
13331;SDS011;6735;51.456;12.626;2023-02-15T11:31:31;10.80;;;8.87;;
13331;SDS011;6735;51.456;12.626;2023-02-15T11:34:13;13.17;;;9.30;;
13331;SDS011;6735;51.456;12.626;2023-02-15T11:36:46;10.30;;;8.80;;
13331;SDS011;6735;51.456;12.626;2023-02-15T11:39:15;9.03;;;8.13;;
13331;SDS011;6735;51.456;12.626;2023-02-15T11:41:53;15.37;;;8.80;;
13331;SDS011;6735;51.456;12.626;2023-02-15T11:44:23;10.47;;;8.80;;
13331;SDS011;6735;51.456;12.626;2023-02-15T11:46:57;9.30;;;8.33;;
13331;SDS011;6735;51.456;12.626;2023-02-15T11:49:26;12.60;;;8.10;;
13331;SDS011;6735;51.456;12.626;2023-02-15T11:51:57;9.37;;;8.37;;
13331;SDS011;6735;51.456;12.626;2023-02-15T11:54:29;9.73;;;8.13;;
13331;SDS011;6735;51.456;12.626;2023-02-15T11:56:59;12.23;;;8.53;;
13331;SDS011;6735;51.456;12.626;2023-02-15T11:59:32;10.77;;;8.20;;
13331;SDS011;6735;51.456;12.626;2023-02-15T12:02:02;9.53;;;7.53;;
13331;SDS011;6735;51.456;12.626;2023-02-15T12:04:40;8.97;;;7.80;;
13331;SDS011;6735;51.456;12.626;2023-02-15T12:07:19;9.03;;;8.13;;
13331;SDS011;6735;51.456;12.626;2023-02-15T12:10:16;8.43;;;7.63;;
13331;SDS011;6735;51.456;12.626;2023-02-15T12:13:14;8.83;;;7.47;;
13331;SDS011;6735;51.456;12.626;2023-02-15T12:15:51;8.03;;;7.17;;
13331;SDS011;6735;51.456;12.626;2023-02-15T12:18:35;7.87;;;7.17;;
13331;SDS011;6735;51.456;12.626;2023-02-15T12:21:10;8.67;;;7.60;;
13331;SDS011;6735;51.456;12.626;2023-02-15T12:26:15;9.90;;;7.27;;
13331;SDS011;6735;51.456;12.626;2023-02-15T12:28:49;8.53;;;7.00;;
13331;SDS011;6735;51.456;12.626;2023-02-15T12:34:07;8.33;;;7.40;;
13331;SDS011;6735;51.456;12.626;2023-02-15T12:36:45;7.93;;;7.13;;
13331;SDS011;6735;51.456;12.626;2023-02-15T12:39:20;7.10;;;6.40;;
13331;SDS011;6735;51.456;12.626;2023-02-15T12:44:20;9.77;;;7.20;;
13331;SDS011;6735;51.456;12.626;2023-02-15T12:46:59;8.20;;;7.33;;
13331;SDS011;6735;51.456;12.626;2023-02-15T12:52:32;8.87;;;7.00;;
13331;SDS011;6735;51.456;12.626;2023-02-15T12:57:44;8.10;;;7.30;;
13331;SDS011;6735;51.456;12.626;2023-02-15T13:05:21;8.80;;;7.57;;
13331;SDS011;6735;51.456;12.626;2023-02-15T13:07:57;8.23;;;7.43;;
13331;SDS011;6735;51.456;12.626;2023-02-15T13:10:26;9.80;;;7.40;;
13331;SDS011;6735;51.456;12.626;2023-02-15T13:12:55;7.77;;;6.97;;
13331;SDS011;6735;51.456;12.626;2023-02-15T13:15:39;8.07;;;7.20;;
13331;SDS011;6735;51.456;12.626;2023-02-15T13:18:12;8.43;;;6.70;;
13331;SDS011;6735;51.456;12.626;2023-02-15T13:20:40;7.70;;;7.00;;
13331;SDS011;6735;51.456;12.626;2023-02-15T13:23:20;9.27;;;6.47;;
13331;SDS011;6735;51.456;12.626;2023-02-15T13:25:58;10.00;;;7.00;;
13331;SDS011;6735;51.456;12.626;2023-02-15T13:28:41;8.53;;;6.37;;
13331;SDS011;6735;51.456;12.626;2023-02-15T13:31:11;11.73;;;7.03;;
13331;SDS011;6735;51.456;12.626;2023-02-15T13:33:46;8.70;;;7.10;;
13331;SDS011;6735;51.456;12.626;2023-02-15T13:36:34;8.43;;;6.80;;
13331;SDS011;6735;51.456;12.626;2023-02-15T13:41:53;8.93;;;6.73;;
13331;SDS011;6735;51.456;12.626;2023-02-15T13:50:18;6.90;;;5.90;;
13331;SDS011;6735;51.456;12.626;2023-02-15T13:55:47;7.63;;;6.23;;
13331;SDS011;6735;51.456;12.626;2023-02-15T13:58:32;7.10;;;6.40;;
13331;SDS011;6735;51.456;12.626;2023-02-15T14:01:09;7.07;;;6.10;;
13331;SDS011;6735;51.456;12.626;2023-02-15T14:04:14;8.50;;;6.70;;
13331;SDS011;6735;51.456;12.626;2023-02-15T14:07:06;7.93;;;6.07;;
13331;SDS011;6735;51.456;12.626;2023-02-15T14:25:54;8.27;;;6.10;;
13331;SDS011;6735;51.456;12.626;2023-02-15T14:28:28;5.80;;;5.30;;
13331;SDS011;6735;51.456;12.626;2023-02-15T14:31:01;6.40;;;5.00;;
13331;SDS011;6735;51.456;12.626;2023-02-15T14:33:33;5.90;;;4.87;;
13331;SDS011;6735;51.456;12.626;2023-02-15T14:36:05;6.37;;;4.83;;
13331;SDS011;6735;51.456;12.626;2023-02-15T14:38:38;5.33;;;4.67;;
13331;SDS011;6735;51.456;12.626;2023-02-15T14:41:10;5.40;;;4.87;;
13331;SDS011;6735;51.456;12.626;2023-02-15T14:49:09;5.93;;;5.33;;
13331;SDS011;6735;51.456;12.626;2023-02-15T14:56:46;10.10;;;6.97;;
13331;SDS011;6735;51.456;12.626;2023-02-15T14:59:38;6.27;;;5.57;;
13331;SDS011;6735;51.456;12.626;2023-02-15T15:04:34;7.27;;;5.30;;
13331;SDS011;6735;51.456;12.626;2023-02-15T15:07:07;7.30;;;5.90;;
13331;SDS011;6735;51.456;12.626;2023-02-15T15:09:42;7.67;;;5.83;;
13331;SDS011;6735;51.456;12.626;2023-02-15T15:12:15;6.93;;;6.30;;
13331;SDS011;6735;51.456;12.626;2023-02-15T15:14:47;6.57;;;5.80;;
13331;SDS011;6735;51.456;12.626;2023-02-15T15:17:52;6.03;;;5.47;;
13331;SDS011;6735;51.456;12.626;2023-02-15T15:20:11;6.30;;;5.70;;
13331;SDS011;6735;51.456;12.626;2023-02-15T15:22:39;7.33;;;6.03;;
13331;SDS011;6735;51.456;12.626;2023-02-15T15:27:58;8.13;;;6.20;;
13331;SDS011;6735;51.456;12.626;2023-02-15T15:35:27;8.30;;;7.10;;
13331;SDS011;6735;51.456;12.626;2023-02-15T15:38:17;8.90;;;8.00;;
13331;SDS011;6735;51.456;12.626;2023-02-15T15:41:14;10.47;;;8.70;;
13331;SDS011;6735;51.456;12.626;2023-02-15T15:43:52;9.70;;;8.80;;
13331;SDS011;6735;51.456;12.626;2023-02-15T15:46:41;9.20;;;8.20;;
13331;SDS011;6735;51.456;12.626;2023-02-15T15:49:37;9.77;;;7.97;;
13331;SDS011;6735;51.456;12.626;2023-02-15T15:52:14;8.73;;;7.67;;
13331;SDS011;6735;51.456;12.626;2023-02-15T15:54:44;8.07;;;7.27;;
13331;SDS011;6735;51.456;12.626;2023-02-15T15:57:27;7.40;;;6.70;;
13331;SDS011;6735;51.456;12.626;2023-02-15T15:59:56;7.10;;;6.50;;
13331;SDS011;6735;51.456;12.626;2023-02-15T16:02:24;6.73;;;6.13;;
13331;SDS011;6735;51.456;12.626;2023-02-15T16:04:50;9.63;;;6.60;;
13331;SDS011;6735;51.456;12.626;2023-02-15T16:09:40;8.33;;;6.20;;
13331;SDS011;6735;51.456;12.626;2023-02-15T16:12:14;7.60;;;6.17;;
13331;SDS011;6735;51.456;12.626;2023-02-15T16:14:42;6.40;;;5.37;;
13331;SDS011;6735;51.456;12.626;2023-02-15T16:17:17;6.47;;;5.87;;
13331;SDS011;6735;51.456;12.626;2023-02-15T16:19:49;6.00;;;5.50;;
13331;SDS011;6735;51.456;12.626;2023-02-15T16:22:20;6.87;;;5.80;;
13331;SDS011;6735;51.456;12.626;2023-02-15T16:27:47;6.60;;;6.00;;
13331;SDS011;6735;51.456;12.626;2023-02-15T16:33:02;7.47;;;6.10;;
13331;SDS011;6735;51.456;12.626;2023-02-15T16:35:39;6.53;;;5.40;;
13331;SDS011;6735;51.456;12.626;2023-02-15T16:38:08;6.40;;;5.80;;
13331;SDS011;6735;51.456;12.626;2023-02-15T16:40:40;7.60;;;6.10;;
13331;SDS011;6735;51.456;12.626;2023-02-15T16:43:18;8.83;;;6.57;;
13331;SDS011;6735;51.456;12.626;2023-02-15T16:46:06;11.63;;;6.80;;
13331;SDS011;6735;51.456;12.626;2023-02-15T16:48:39;7.40;;;6.70;;
13331;SDS011;6735;51.456;12.626;2023-02-15T16:51:07;8.07;;;6.60;;
13331;SDS011;6735;51.456;12.626;2023-02-15T16:53:34;9.37;;;7.30;;
13331;SDS011;6735;51.456;12.626;2023-02-15T16:56:02;9.10;;;7.63;;
13331;SDS011;6735;51.456;12.626;2023-02-15T16:58:44;11.03;;;7.90;;
13331;SDS011;6735;51.456;12.626;2023-02-15T17:01:14;11.73;;;7.93;;
13331;SDS011;6735;51.456;12.626;2023-02-15T17:03:40;10.20;;;8.33;;
13331;SDS011;6735;51.456;12.626;2023-02-15T17:06:23;11.10;;;9.33;;
13331;SDS011;6735;51.456;12.626;2023-02-15T17:08:51;11.63;;;9.67;;
13331;SDS011;6735;51.456;12.626;2023-02-15T17:11:18;13.37;;;10.40;;
13331;SDS011;6735;51.456;12.626;2023-02-15T17:16:36;27.57;;;22.00;;
13331;SDS011;6735;51.456;12.626;2023-02-15T17:19:20;30.10;;;24.10;;